createdAt,value
2022-09-03T00:00:53.121Z,52.90
2022-09-03T00:03:37.848Z,50.22
2022-09-03T00:06:22.686Z,52.08
2022-09-03T00:09:07.452Z,50.75
2022-09-03T00:11:52.204Z,49.89
2022-09-03T00:14:37.260Z,48.67
2022-09-03T00:17:21.993Z,47.54
2022-09-03T00:20:06.800Z,47.57
2022-09-03T00:22:51.473Z,48.70
2022-09-03T00:25:36.213Z,48.20
2022-09-03T00:28:21.056Z,48.05
2022-09-03T00:31:05.907Z,49.82
2022-09-03T00:33:50.566Z,50.62
2022-09-03T00:36:35.335Z,50.72
2022-09-03T00:39:20.018Z,51.82
2022-09-03T00:42:05.161Z,52.30
2022-09-03T00:44:49.741Z,52.98
2022-09-03T00:47:34.524Z,52.72
2022-09-03T00:50:19.392Z,54.09
2022-09-03T00:53:04.248Z,54.79
2022-09-03T00:55:49.012Z,52.89
2022-09-03T00:58:33.579Z,52.33
2022-09-03T01:01:18.597Z,50.09
2022-09-03T01:04:03.686Z,51.14
2022-09-03T01:06:48.457Z,53.10
2022-09-03T01:09:33.113Z,51.68
2022-09-03T01:12:17.863Z,50.35
2022-09-03T01:15:02.601Z,50.11
2022-09-03T01:17:47.430Z,50.51
2022-09-03T01:20:32.160Z,51.49
2022-09-03T01:23:16.893Z,53.28
2022-09-03T01:26:01.697Z,52.20
2022-09-03T01:28:46.473Z,51.14
2022-09-03T01:31:31.398Z,50.47
2022-09-03T01:34:16.509Z,48.12
2022-09-03T01:37:01.304Z,48.71
2022-09-03T01:39:46.029Z,48.80
2022-09-03T01:42:30.859Z,49.27
2022-09-03T01:45:15.597Z,50.32
2022-09-03T01:48:00.275Z,51.33
2022-09-03T01:50:45.162Z,52.05
2022-09-03T01:53:29.951Z,52.95
2022-09-03T01:56:14.772Z,52.58
2022-09-03T01:58:59.348Z,52.78
2022-09-03T02:01:44.372Z,51.85
2022-09-03T02:04:29.493Z,52.38
2022-09-03T02:07:14.322Z,53.11
2022-09-03T02:09:58.939Z,52.07
2022-09-03T02:12:43.728Z,51.53
2022-09-03T02:15:28.616Z,51.90
2022-09-03T02:18:13.316Z,52.57
2022-09-03T02:20:58.099Z,53.31
2022-09-03T02:23:42.954Z,53.88
2022-09-03T02:26:27.746Z,53.88
2022-09-03T02:29:12.633Z,54.37
2022-09-03T02:31:57.421Z,54.63
2022-09-03T02:34:42.242Z,55.84
2022-09-03T02:37:27.065Z,52.68
2022-09-03T02:40:11.830Z,52.57
2022-09-03T02:42:56.938Z,52.78
2022-09-03T02:45:41.791Z,53.54
2022-09-03T02:48:26.967Z,53.64
2022-09-03T02:51:14.094Z,54.26
2022-09-03T02:53:59.581Z,54.20
2022-09-03T02:56:44.512Z,54.56
2022-09-03T02:59:29.205Z,54.98
2022-09-03T03:02:13.965Z,55.23
2022-09-03T03:04:59.167Z,54.36
2022-09-03T03:07:43.857Z,54.13
2022-09-03T03:10:28.690Z,54.27
2022-09-03T03:13:13.396Z,53.74
2022-09-03T03:15:58.227Z,53.67
2022-09-03T03:18:43.008Z,54.92
2022-09-03T03:21:27.811Z,55.00
2022-09-03T03:24:12.552Z,55.48
2022-09-03T03:26:57.361Z,54.36
2022-09-03T03:29:42.212Z,54.34
2022-09-03T03:32:26.973Z,54.68
2022-09-03T03:35:11.723Z,54.96
2022-09-03T03:37:56.376Z,55.16
2022-09-03T03:40:41.397Z,55.88
2022-09-03T03:43:26.012Z,56.18
2022-09-03T03:46:11.064Z,56.98
2022-09-03T03:48:56.284Z,57.43
2022-09-03T03:51:40.994Z,56.15
2022-09-03T03:54:25.720Z,54.67
2022-09-03T03:57:10.403Z,52.62
2022-09-03T03:59:55.160Z,51.81
2022-09-03T04:02:39.944Z,52.29
2022-09-03T04:05:25.389Z,53.10
2022-09-03T04:08:11.618Z,53.44
2022-09-03T04:10:56.415Z,53.10
2022-09-03T04:13:41.090Z,54.91
2022-09-03T04:16:26.124Z,55.20
2022-09-03T04:19:11.356Z,56.19
2022-09-03T04:21:56.089Z,54.59
2022-09-03T04:24:40.890Z,54.29
2022-09-03T04:27:25.606Z,54.12
2022-09-03T04:30:10.490Z,53.01
2022-09-03T04:32:55.210Z,51.74
2022-09-03T04:35:40.001Z,50.36
2022-09-03T04:38:24.838Z,50.28
2022-09-03T04:41:10.007Z,50.80
2022-09-03T04:43:54.838Z,50.63
2022-09-03T04:46:39.612Z,52.58
2022-09-03T04:49:24.643Z,54.81
2022-09-03T04:52:09.399Z,56.64
2022-09-03T04:54:54.457Z,57.87
2022-09-03T04:57:39.153Z,59.50
2022-09-03T05:00:23.987Z,60.61
2022-09-03T05:03:08.641Z,60.98
2022-09-03T05:05:53.512Z,60.59
2022-09-03T05:08:38.257Z,56.02
2022-09-03T05:11:23.480Z,52.76
2022-09-03T05:14:08.446Z,51.05
2022-09-03T05:16:53.473Z,49.49
2022-09-03T05:19:38.766Z,49.21
2022-09-03T05:22:23.535Z,48.42
2022-09-03T05:25:08.238Z,47.37
2022-09-03T05:27:52.932Z,46.98
2022-09-03T05:30:37.639Z,47.33
2022-09-03T05:33:22.256Z,49.60
2022-09-03T05:36:07.037Z,54.23
2022-09-03T05:38:51.908Z,56.27
2022-09-03T05:41:36.748Z,57.18
2022-09-03T05:44:21.612Z,58.21
2022-09-03T05:47:06.543Z,60.11
2022-09-03T05:49:51.335Z,60.18
2022-09-03T05:52:36.018Z,57.93
2022-09-03T05:55:20.888Z,54.63
2022-09-03T05:58:05.970Z,52.60
2022-09-03T06:00:50.879Z,50.68
2022-09-03T06:03:35.603Z,49.33
2022-09-03T06:06:20.779Z,49.45
2022-09-03T06:09:05.582Z,50.01
2022-09-03T06:11:50.431Z,52.31
2022-09-03T06:14:37.693Z,53.94
2022-09-03T06:17:22.489Z,52.94
2022-09-03T06:20:07.244Z,52.47
2022-09-03T06:22:52.129Z,53.21
2022-09-03T06:25:36.848Z,52.13
2022-09-03T06:28:23.346Z,44.24
2022-09-03T06:31:11.433Z,41.68
2022-09-03T06:33:59.744Z,41.38
2022-09-03T06:36:48.467Z,38.86
2022-09-03T06:39:33.310Z,33.54
2022-09-03T06:42:18.418Z,31.26
2022-09-03T06:45:03.094Z,29.20
2022-09-03T06:47:47.832Z,29.91
2022-09-03T06:50:34.791Z,27.43
2022-09-03T06:53:19.962Z,27.73
2022-09-03T06:56:04.698Z,25.86
2022-09-03T06:58:49.448Z,23.89
2022-09-03T07:01:34.194Z,25.40
2022-09-03T07:04:20.398Z,26.81
2022-09-03T07:07:05.505Z,28.52
2022-09-03T07:09:50.288Z,29.12
2022-09-03T07:12:35.051Z,28.20
2022-09-03T07:15:19.860Z,29.62
2022-09-03T07:18:04.680Z,27.80
2022-09-03T07:20:49.495Z,27.06
2022-09-03T07:23:34.311Z,25.62
2022-09-03T07:26:18.982Z,24.86
2022-09-03T07:29:03.833Z,25.39
2022-09-03T07:31:48.664Z,28.84
2022-09-03T07:34:33.856Z,31.28
2022-09-03T07:37:19.163Z,34.14
2022-09-03T07:40:04.087Z,39.29
2022-09-03T07:42:53.253Z,44.83
2022-09-03T07:45:40.062Z,46.79
2022-09-03T07:48:25.165Z,46.09
2022-09-03T07:51:10.229Z,46.75
2022-09-03T07:53:54.905Z,48.23
2022-09-03T07:56:39.936Z,49.05
2022-09-03T07:59:24.816Z,49.22
2022-09-03T08:02:10.141Z,47.41
2022-09-03T08:04:55.192Z,45.65
2022-09-03T08:07:40.094Z,46.15
2022-09-03T08:10:27.059Z,44.68
2022-09-03T08:13:11.707Z,45.40
2022-09-03T08:15:56.546Z,47.03
2022-09-03T08:18:41.722Z,48.34
2022-09-03T08:21:26.560Z,50.19
2022-09-03T08:24:11.318Z,50.58
2022-09-03T08:26:56.048Z,51.77
2022-09-03T08:29:40.834Z,52.38
2022-09-03T08:32:25.555Z,52.57
2022-09-03T08:35:10.324Z,47.38
2022-09-03T08:37:56.943Z,46.62
2022-09-03T08:40:42.105Z,49.27
2022-09-03T08:43:26.748Z,49.10
2022-09-03T08:46:11.661Z,49.20
2022-09-03T08:48:56.520Z,48.45
2022-09-03T08:51:41.393Z,51.05
2022-09-03T08:54:26.210Z,52.15
2022-09-03T08:57:11.017Z,52.47
2022-09-03T08:59:56.198Z,53.10
2022-09-03T09:02:41.340Z,52.68
2022-09-03T09:05:26.736Z,51.97
2022-09-03T09:08:11.880Z,53.32
2022-09-03T09:10:56.766Z,52.13
2022-09-03T09:13:41.557Z,52.08
2022-09-03T09:16:26.432Z,50.78
2022-09-03T09:19:11.717Z,50.38
2022-09-03T09:21:56.517Z,50.16
2022-09-03T09:24:41.353Z,49.44
2022-09-03T09:27:26.086Z,48.58
2022-09-03T09:30:10.869Z,47.68
2022-09-03T09:32:55.574Z,46.54
2022-09-03T09:35:40.232Z,46.78
2022-09-03T09:38:25.001Z,45.18
2022-09-03T09:41:10.274Z,43.43
2022-09-03T09:43:55.077Z,43.85
2022-09-03T09:46:39.883Z,45.36
2022-09-03T09:49:24.803Z,46.68
2022-09-03T09:52:09.433Z,48.31
2022-09-03T09:54:54.130Z,48.83
2022-09-03T09:57:38.934Z,49.81
2022-09-03T10:00:23.948Z,50.18
2022-09-03T10:03:09.149Z,50.54
2022-09-03T10:05:54.423Z,50.28
2022-09-03T10:08:39.672Z,48.57
2022-09-03T10:11:24.503Z,49.20
2022-09-03T10:14:09.180Z,48.23
2022-09-03T10:16:53.997Z,48.22
2022-09-03T10:19:39.481Z,46.23
2022-09-03T10:22:24.168Z,45.76
2022-09-03T10:25:10.108Z,45.61
2022-09-03T10:27:54.732Z,45.73
2022-09-03T10:30:39.586Z,45.37
2022-09-03T10:33:24.777Z,45.44
2022-09-03T10:36:09.650Z,46.85
2022-09-03T10:38:54.623Z,47.16
2022-09-03T10:41:39.377Z,47.92
2022-09-03T10:44:24.037Z,46.61
2022-09-03T10:47:08.724Z,46.49
2022-09-03T10:49:53.528Z,46.01
2022-09-03T10:52:38.311Z,45.42
2022-09-03T10:55:23.101Z,45.39
2022-09-03T10:58:07.768Z,45.33
2022-09-03T11:00:52.660Z,45.02
2022-09-03T11:03:37.449Z,45.72
2022-09-03T11:06:22.200Z,46.25
2022-09-03T11:09:07.047Z,46.32
2022-09-03T11:11:51.813Z,46.12
2022-09-03T11:14:36.626Z,46.09
2022-09-03T11:17:21.173Z,44.65
2022-09-03T11:20:05.984Z,45.01
2022-09-03T11:22:50.714Z,44.77
2022-09-03T11:25:35.622Z,44.93
2022-09-03T11:28:20.677Z,45.73
2022-09-03T11:31:06.745Z,46.17
2022-09-03T11:33:51.920Z,42.82
2022-09-03T11:36:36.654Z,42.28
2022-09-03T11:39:21.458Z,39.05
2022-09-03T11:42:06.563Z,38.68
2022-09-03T11:44:52.121Z,39.24
2022-09-03T11:47:37.368Z,39.96
2022-09-03T11:50:22.097Z,40.47
2022-09-03T11:53:07.465Z,40.70
2022-09-03T11:55:52.745Z,39.53
2022-09-03T11:58:37.992Z,39.30
2022-09-03T12:01:22.691Z,40.15
2022-09-03T12:04:07.436Z,38.67
2022-09-03T12:06:52.109Z,38.83
2022-09-03T12:09:36.895Z,40.00
2022-09-03T12:12:21.795Z,39.36
2022-09-03T12:15:06.626Z,39.88
2022-09-03T12:17:51.642Z,39.29
2022-09-03T12:20:36.404Z,39.96
2022-09-03T12:23:21.324Z,40.07
2022-09-03T12:26:06.028Z,40.96
2022-09-03T12:28:51.838Z,40.85
2022-09-03T12:31:40.108Z,40.97
2022-09-03T12:34:27.820Z,40.96
2022-09-03T12:37:12.605Z,41.77
2022-09-03T12:40:06.545Z,41.63
2022-09-03T12:42:52.718Z,41.32
2022-09-03T12:48:43.984Z,40.57
2022-09-03T12:54:34.015Z,39.56
2022-09-03T12:57:18.766Z,40.68
2022-09-03T13:00:03.690Z,41.28
2022-09-03T13:02:48.340Z,41.42
2022-09-03T13:05:33.195Z,41.98
2022-09-03T13:08:17.918Z,42.26
2022-09-03T13:11:02.647Z,41.80
2022-09-03T13:13:47.362Z,40.19
2022-09-03T13:16:32.123Z,39.70
2022-09-03T13:19:17.502Z,39.10
2022-09-03T13:22:02.235Z,38.21
2022-09-03T13:24:47.157Z,39.70
2022-09-03T13:27:31.761Z,39.45
2022-09-03T13:30:16.612Z,38.79
2022-09-03T13:33:01.636Z,40.74
2022-09-03T13:35:46.799Z,41.21
2022-09-03T13:38:37.114Z,42.49
2022-09-03T13:41:22.260Z,42.88
2022-09-03T13:44:07.008Z,43.65
2022-09-03T13:46:52.280Z,44.70
2022-09-03T13:49:37.061Z,46.03
2022-09-03T13:52:21.833Z,45.30
2022-09-03T13:55:06.508Z,45.44
2022-09-03T13:57:51.367Z,45.75
2022-09-03T14:00:36.162Z,40.84
2022-09-03T14:03:21.052Z,42.77
2022-09-03T14:06:06.872Z,44.87
2022-09-03T14:08:55.385Z,45.32
2022-09-03T14:11:40.736Z,44.48
2022-09-03T14:14:25.415Z,42.11
2022-09-03T14:17:10.172Z,43.38
2022-09-03T14:19:54.902Z,42.82
2022-09-03T14:22:39.732Z,41.25
2022-09-03T14:25:24.412Z,39.10
2022-09-03T14:28:09.248Z,39.91
2022-09-03T14:30:55.599Z,40.18
2022-09-03T14:33:40.592Z,38.87
2022-09-03T14:36:25.392Z,37.81
2022-09-03T14:39:09.978Z,38.37
2022-09-03T14:41:54.676Z,38.20
2022-09-03T14:44:39.435Z,38.64
2022-09-03T14:47:24.298Z,38.46
2022-09-03T14:50:08.968Z,37.75
2022-09-03T14:52:53.749Z,37.04
2022-09-03T14:55:38.601Z,37.45
2022-09-03T14:58:23.367Z,37.59
2022-09-03T15:01:08.188Z,37.88
2022-09-03T15:03:53.221Z,38.41
2022-09-03T15:06:38.054Z,38.21
2022-09-03T15:09:22.728Z,38.22
2022-09-03T15:12:07.436Z,36.94
2022-09-03T15:14:52.722Z,35.63
2022-09-03T15:17:37.451Z,35.13
2022-09-03T15:20:22.154Z,34.67
2022-09-03T15:23:06.990Z,34.74
2022-09-03T15:25:51.856Z,34.22
2022-09-03T15:28:36.580Z,34.33
2022-09-03T15:31:21.212Z,34.68
2022-09-03T15:34:05.816Z,35.10
2022-09-03T15:36:50.642Z,35.00
2022-09-03T15:39:35.885Z,35.38
2022-09-03T15:42:20.644Z,33.09
2022-09-03T15:45:05.444Z,33.74
2022-09-03T15:47:52.191Z,34.86
2022-09-03T15:50:37.653Z,34.67
2022-09-03T15:53:22.463Z,35.15
2022-09-03T15:56:11.661Z,35.38
2022-09-03T15:58:58.541Z,35.44
2022-09-03T16:01:43.176Z,35.35
2022-09-03T16:04:28.045Z,32.86
2022-09-03T16:07:12.655Z,31.45
2022-09-03T16:10:22.672Z,31.26
2022-09-03T16:13:02.570Z,31.50
2022-09-03T16:15:47.350Z,31.99
2022-09-03T16:18:32.239Z,32.67
2022-09-03T16:21:16.905Z,33.60
2022-09-03T16:24:01.616Z,32.79
2022-09-03T16:26:46.866Z,32.84
2022-09-03T16:29:31.665Z,31.64
2022-09-03T16:32:16.590Z,32.63
2022-09-03T16:35:01.389Z,30.86
2022-09-03T16:37:46.333Z,31.06
2022-09-03T16:40:31.115Z,29.89
2022-09-03T16:43:39.293Z,29.21
2022-09-03T16:46:20.933Z,30.90
2022-09-03T16:49:05.736Z,31.22
2022-09-03T16:51:50.571Z,30.46
2022-09-03T16:54:35.801Z,31.33
2022-09-03T16:57:20.574Z,28.63
2022-09-03T17:00:05.304Z,31.13
2022-09-03T17:02:50.130Z,32.30
2022-09-03T17:05:34.923Z,33.36
2022-09-03T17:08:20.077Z,33.92
2022-09-03T17:11:05.051Z,33.96
2022-09-03T17:13:49.743Z,33.73
2022-09-03T17:16:34.636Z,32.40
2022-09-03T17:19:19.703Z,33.57
2022-09-03T17:22:04.410Z,34.40
2022-09-03T17:24:49.161Z,31.70
2022-09-03T17:27:33.926Z,31.66
2022-09-03T17:30:18.591Z,33.22
2022-09-03T17:33:03.311Z,34.95
2022-09-03T17:35:48.109Z,35.64
2022-09-03T17:38:32.833Z,36.37
2022-09-03T17:41:17.590Z,36.79
2022-09-03T17:44:02.159Z,37.45
2022-09-03T17:46:46.988Z,37.27
2022-09-03T17:49:32.242Z,36.94
2022-09-03T17:52:16.914Z,37.96
2022-09-03T17:55:01.728Z,37.51
2022-09-03T17:57:47.013Z,37.42
2022-09-03T18:00:31.810Z,39.86
2022-09-03T18:03:16.518Z,40.63
2022-09-03T18:06:01.353Z,40.48
2022-09-03T18:08:46.451Z,40.39
2022-09-03T18:11:33.835Z,39.81
2022-09-03T18:14:18.980Z,39.29
2022-09-03T18:17:03.727Z,37.22
2022-09-03T18:19:48.434Z,39.30
2022-09-03T18:22:33.248Z,37.74
2022-09-03T18:25:18.084Z,38.19
2022-09-03T18:28:02.848Z,38.17
2022-09-03T18:30:47.642Z,37.38
2022-09-03T18:33:32.277Z,37.56
2022-09-03T18:36:17.101Z,38.93
2022-09-03T18:39:01.754Z,38.53
2022-09-03T18:41:46.679Z,39.59
2022-09-03T18:44:31.300Z,39.39
2022-09-03T18:48:02.274Z,38.78
2022-09-03T18:50:21.055Z,39.27
2022-09-03T18:53:05.722Z,39.99
2022-09-03T18:55:50.333Z,40.99
2022-09-03T18:58:35.075Z,42.13
2022-09-03T19:01:19.855Z,40.99
2022-09-03T19:04:05.097Z,41.19
2022-09-03T19:06:49.863Z,41.75
2022-09-03T19:09:34.655Z,41.25
2022-09-03T19:12:19.373Z,42.53
2022-09-03T19:15:04.203Z,41.64
2022-09-03T19:17:48.900Z,40.91
2022-09-03T19:20:33.741Z,41.14
2022-09-03T19:23:18.455Z,40.35
2022-09-03T19:26:03.265Z,40.33
2022-09-03T19:28:47.944Z,40.00
2022-09-03T19:31:33.025Z,40.09
2022-09-03T19:34:18.240Z,39.97
2022-09-03T19:37:02.902Z,39.79
2022-09-03T19:39:47.677Z,39.18
2022-09-03T19:42:32.724Z,38.15
2022-09-03T19:45:17.489Z,38.56
2022-09-03T19:48:02.591Z,38.32
2022-09-03T19:50:47.952Z,38.39
2022-09-03T19:53:33.225Z,37.81
2022-09-03T19:56:17.961Z,38.27
2022-09-03T19:59:02.801Z,37.74
2022-09-03T20:01:47.891Z,37.43
2022-09-03T20:04:33.389Z,37.04
2022-09-03T20:07:18.073Z,37.40
2022-09-03T20:10:02.985Z,41.02
2022-09-03T20:12:47.682Z,43.15
2022-09-03T20:15:32.476Z,43.43
2022-09-03T20:18:17.211Z,43.96
2022-09-03T20:21:02.420Z,43.77
2022-09-03T20:23:47.186Z,44.41
2022-09-03T20:26:31.997Z,45.01
2022-09-03T20:29:16.880Z,45.70
2022-09-03T20:32:01.587Z,45.22
2022-09-03T20:34:46.396Z,44.14
2022-09-03T20:37:31.179Z,44.48
2022-09-03T20:40:15.876Z,44.88
2022-09-03T20:43:00.552Z,43.89
2022-09-03T20:45:45.424Z,43.70
2022-09-03T20:48:30.141Z,45.98
2022-09-03T20:51:14.908Z,46.65
2022-09-03T20:53:59.789Z,47.84
2022-09-03T20:56:44.503Z,48.62
2022-09-03T20:59:29.411Z,48.59
2022-09-03T21:02:14.129Z,48.49
2022-09-03T21:04:58.822Z,47.92
2022-09-03T21:07:43.614Z,46.81
2022-09-03T21:10:28.361Z,46.48
2022-09-03T21:13:13.045Z,45.49
2022-09-03T21:15:57.958Z,43.92
2022-09-03T21:18:42.728Z,43.43
2022-09-03T21:21:27.604Z,42.34
2022-09-03T21:24:12.337Z,42.91
2022-09-03T21:26:57.061Z,44.37
2022-09-03T21:29:42.001Z,45.25
2022-09-03T21:32:26.669Z,46.51
2022-09-03T21:35:11.588Z,45.34
2022-09-03T21:37:56.301Z,45.97
2022-09-03T21:40:41.144Z,46.38
2022-09-03T21:43:28.503Z,47.28
2022-09-03T21:46:13.318Z,47.76
2022-09-03T21:48:58.057Z,47.53
2022-09-03T21:51:42.725Z,47.77
2022-09-03T21:54:27.590Z,47.62
2022-09-03T21:57:12.258Z,47.22
2022-09-03T21:59:56.995Z,47.25
2022-09-03T22:02:41.883Z,47.18
2022-09-03T22:05:26.942Z,47.53
2022-09-03T22:08:12.735Z,48.19
2022-09-03T22:10:57.481Z,47.63
2022-09-03T22:13:42.366Z,46.70
2022-09-03T22:16:27.091Z,46.55
2022-09-03T22:19:11.794Z,47.03
2022-09-03T22:21:56.664Z,47.24
2022-09-03T22:24:44.388Z,45.90
2022-09-03T22:27:29.260Z,45.80
2022-09-03T22:30:13.927Z,45.72
2022-09-03T22:32:58.862Z,46.79
2022-09-03T22:35:43.557Z,45.49
2022-09-03T22:38:28.400Z,45.41
2022-09-03T22:41:13.017Z,45.74
2022-09-03T22:43:57.776Z,44.88
2022-09-03T22:46:42.572Z,45.68
2022-09-03T22:49:27.756Z,44.41
2022-09-03T22:52:12.601Z,45.87
2022-09-03T22:54:57.423Z,44.88
2022-09-03T22:57:42.258Z,45.05
2022-09-03T23:00:26.916Z,45.77
2022-09-03T23:03:11.923Z,44.91
2022-09-03T23:05:59.759Z,46.08
2022-09-03T23:08:44.641Z,44.36
2022-09-03T23:11:29.314Z,44.34
2022-09-03T23:14:13.962Z,44.37
2022-09-03T23:16:58.992Z,45.03
2022-09-03T23:19:44.103Z,45.85
2022-09-03T23:22:29.005Z,46.56
2022-09-03T23:25:13.769Z,45.27
2022-09-03T23:27:58.667Z,45.31
2022-09-03T23:30:43.341Z,46.22
2022-09-03T23:33:28.020Z,46.28
2022-09-03T23:36:12.719Z,46.90
2022-09-03T23:38:57.432Z,45.75
2022-09-03T23:41:42.192Z,44.38
2022-09-03T23:44:26.955Z,45.42
2022-09-03T23:47:16.349Z,45.57
2022-09-03T23:50:01.081Z,46.13
2022-09-03T23:52:45.926Z,46.38
2022-09-03T23:55:30.803Z,47.31
2022-09-03T23:58:16.528Z,47.17
